sensor_id;sensor_type;location;lat;lon;timestamp;P1;durP1;ratioP1;P2;durP2;ratioP2
56943;SDS011;42848;42.524;12.052;2022-10-17T00:01:24;4.18;;;2.20;;
56943;SDS011;42848;42.524;12.052;2022-10-17T00:03:50;3.28;;;1.85;;
56943;SDS011;42848;42.524;12.052;2022-10-17T00:06:15;2.88;;;1.75;;
56943;SDS011;42848;42.524;12.052;2022-10-17T00:08:42;2.97;;;1.70;;
56943;SDS011;42848;42.524;12.052;2022-10-17T00:11:12;3.03;;;1.85;;
56943;SDS011;42848;42.524;12.052;2022-10-17T00:13:40;2.45;;;1.70;;
56943;SDS011;42848;42.524;12.052;2022-10-17T00:16:07;3.28;;;1.55;;
56943;SDS011;42848;42.524;12.052;2022-10-17T00:18:33;2.67;;;1.63;;
56943;SDS011;42848;42.524;12.052;2022-10-17T00:20:58;3.58;;;1.90;;
56943;SDS011;42848;42.524;12.052;2022-10-17T00:23:24;2.78;;;1.65;;
56943;SDS011;42848;42.524;12.052;2022-10-17T00:26:01;3.47;;;1.75;;
56943;SDS011;42848;42.524;12.052;2022-10-17T00:28:30;2.53;;;1.60;;
56943;SDS011;42848;42.524;12.052;2022-10-17T00:30:57;3.75;;;1.65;;
56943;SDS011;42848;42.524;12.052;2022-10-17T00:33:24;3.33;;;1.80;;
56943;SDS011;42848;42.524;12.052;2022-10-17T00:35:50;3.40;;;1.88;;
56943;SDS011;42848;42.524;12.052;2022-10-17T00:38:16;3.60;;;1.98;;
56943;SDS011;42848;42.524;12.052;2022-10-17T00:40:41;2.90;;;2.00;;
56943;SDS011;42848;42.524;12.052;2022-10-17T00:43:25;3.47;;;2.10;;
56943;SDS011;42848;42.524;12.052;2022-10-17T00:45:51;3.35;;;2.42;;
56943;SDS011;42848;42.524;12.052;2022-10-17T00:48:17;3.90;;;2.28;;
56943;SDS011;42848;42.524;12.052;2022-10-17T00:50:44;3.80;;;2.20;;
56943;SDS011;42848;42.524;12.052;2022-10-17T00:53:12;4.05;;;2.40;;
56943;SDS011;42848;42.524;12.052;2022-10-17T00:55:44;3.55;;;2.30;;
56943;SDS011;42848;42.524;12.052;2022-10-17T00:58:14;3.83;;;2.22;;
56943;SDS011;42848;42.524;12.052;2022-10-17T01:00:41;4.78;;;2.95;;
56943;SDS011;42848;42.524;12.052;2022-10-17T01:03:08;5.05;;;2.70;;
56943;SDS011;42848;42.524;12.052;2022-10-17T01:05:33;5.10;;;2.70;;
56943;SDS011;42848;42.524;12.052;2022-10-17T01:08:01;4.47;;;2.55;;
56943;SDS011;42848;42.524;12.052;2022-10-17T01:10:29;5.20;;;2.63;;
56943;SDS011;42848;42.524;12.052;2022-10-17T01:29:59;5.78;;;3.78;;
56943;SDS011;42848;42.524;12.052;2022-10-17T01:35:29;7.78;;;3.45;;
56943;SDS011;42848;42.524;12.052;2022-10-17T01:38:12;6.07;;;3.70;;
56943;SDS011;42848;42.524;12.052;2022-10-17T01:46:28;6.85;;;4.13;;
56943;SDS011;42848;42.524;12.052;2022-10-17T01:49:00;6.25;;;4.00;;
56943;SDS011;42848;42.524;12.052;2022-10-17T01:51:29;5.90;;;3.97;;
56943;SDS011;42848;42.524;12.052;2022-10-17T01:54:01;6.13;;;4.07;;
56943;SDS011;42848;42.524;12.052;2022-10-17T01:56:33;5.97;;;4.20;;
56943;SDS011;42848;42.524;12.052;2022-10-17T01:59:06;7.32;;;4.85;;
56943;SDS011;42848;42.524;12.052;2022-10-17T02:01:37;7.10;;;3.67;;
56943;SDS011;42848;42.524;12.052;2022-10-17T02:04:05;5.82;;;3.42;;
56943;SDS011;42848;42.524;12.052;2022-10-17T02:06:34;7.07;;;3.90;;
56943;SDS011;42848;42.524;12.052;2022-10-17T02:09:13;7.63;;;4.00;;
56943;SDS011;42848;42.524;12.052;2022-10-17T02:17:26;6.68;;;4.20;;
56943;SDS011;42848;42.524;12.052;2022-10-17T02:28:18;6.72;;;4.93;;
56943;SDS011;42848;42.524;12.052;2022-10-17T02:31:03;8.07;;;4.82;;
56943;SDS011;42848;42.524;12.052;2022-10-17T02:36:08;7.05;;;4.65;;
56943;SDS011;42848;42.524;12.052;2022-10-17T02:38:37;7.13;;;4.97;;
56943;SDS011;42848;42.524;12.052;2022-10-17T02:41:06;7.40;;;4.90;;
56943;SDS011;42848;42.524;12.052;2022-10-17T02:43:35;8.55;;;5.22;;
56943;SDS011;42848;42.524;12.052;2022-10-17T02:46:02;8.57;;;5.15;;
56943;SDS011;42848;42.524;12.052;2022-10-17T02:48:31;6.85;;;4.82;;
56943;SDS011;42848;42.524;12.052;2022-10-17T02:51:15;8.35;;;5.40;;
56943;SDS011;42848;42.524;12.052;2022-10-17T02:56:24;8.68;;;5.10;;
56943;SDS011;42848;42.524;12.052;2022-10-17T02:58:53;8.48;;;5.45;;
56943;SDS011;42848;42.524;12.052;2022-10-17T03:01:22;7.75;;;5.18;;
56943;SDS011;42848;42.524;12.052;2022-10-17T03:03:49;10.25;;;4.97;;
56943;SDS011;42848;42.524;12.052;2022-10-17T03:06:14;8.23;;;5.30;;
56943;SDS011;42848;42.524;12.052;2022-10-17T03:08:40;7.93;;;5.30;;
56943;SDS011;42848;42.524;12.052;2022-10-17T03:11:06;8.18;;;5.47;;
56943;SDS011;42848;42.524;12.052;2022-10-17T03:13:32;8.77;;;5.25;;
56943;SDS011;42848;42.524;12.052;2022-10-17T03:15:58;7.43;;;5.15;;
56943;SDS011;42848;42.524;12.052;2022-10-17T03:18:23;7.82;;;5.18;;
56943;SDS011;42848;42.524;12.052;2022-10-17T03:20:49;7.28;;;5.30;;
56943;SDS011;42848;42.524;12.052;2022-10-17T03:23:15;8.68;;;5.40;;
56943;SDS011;42848;42.524;12.052;2022-10-17T03:25:40;7.53;;;4.90;;
56943;SDS011;42848;42.524;12.052;2022-10-17T03:28:06;6.38;;;4.82;;
56943;SDS011;42848;42.524;12.052;2022-10-17T03:30:33;7.05;;;4.78;;
56943;SDS011;42848;42.524;12.052;2022-10-17T03:32:58;8.70;;;5.05;;
56943;SDS011;42848;42.524;12.052;2022-10-17T03:35:25;8.07;;;4.95;;
56943;SDS011;42848;42.524;12.052;2022-10-17T03:37:51;7.55;;;4.93;;
56943;SDS011;42848;42.524;12.052;2022-10-17T03:40:19;6.70;;;4.68;;
56943;SDS011;42848;42.524;12.052;2022-10-17T03:42:45;8.73;;;5.13;;
56943;SDS011;42848;42.524;12.052;2022-10-17T03:45:11;7.63;;;4.60;;
56943;SDS011;42848;42.524;12.052;2022-10-17T03:47:36;9.32;;;5.45;;
56943;SDS011;42848;42.524;12.052;2022-10-17T03:50:02;9.60;;;5.30;;
56943;SDS011;42848;42.524;12.052;2022-10-17T03:52:28;8.18;;;5.00;;
56943;SDS011;42848;42.524;12.052;2022-10-17T03:54:54;8.63;;;5.13;;
56943;SDS011;42848;42.524;12.052;2022-10-17T03:57:19;9.10;;;4.93;;
56943;SDS011;42848;42.524;12.052;2022-10-17T03:59:45;7.32;;;4.88;;
56943;SDS011;42848;42.524;12.052;2022-10-17T04:02:11;8.98;;;4.80;;
56943;SDS011;42848;42.524;12.052;2022-10-17T04:04:36;7.00;;;4.50;;
56943;SDS011;42848;42.524;12.052;2022-10-17T04:07:02;6.90;;;4.50;;
56943;SDS011;42848;42.524;12.052;2022-10-17T04:09:28;6.95;;;4.72;;
56943;SDS011;42848;42.524;12.052;2022-10-17T04:11:53;6.55;;;4.53;;
56943;SDS011;42848;42.524;12.052;2022-10-17T04:14:19;6.57;;;4.60;;
56943;SDS011;42848;42.524;12.052;2022-10-17T04:16:44;6.93;;;4.80;;
56943;SDS011;42848;42.524;12.052;2022-10-17T04:19:11;8.32;;;4.80;;
56943;SDS011;42848;42.524;12.052;2022-10-17T04:21:38;7.10;;;4.80;;
56943;SDS011;42848;42.524;12.052;2022-10-17T04:24:04;8.20;;;5.15;;
56943;SDS011;42848;42.524;12.052;2022-10-17T04:26:30;8.32;;;4.97;;
56943;SDS011;42848;42.524;12.052;2022-10-17T04:28:56;7.72;;;4.95;;
56943;SDS011;42848;42.524;12.052;2022-10-17T04:31:21;7.47;;;5.07;;
56943;SDS011;42848;42.524;12.052;2022-10-17T04:33:47;7.05;;;4.97;;
56943;SDS011;42848;42.524;12.052;2022-10-17T04:36:15;7.82;;;4.70;;
56943;SDS011;42848;42.524;12.052;2022-10-17T04:38:43;8.32;;;5.18;;
56943;SDS011;42848;42.524;12.052;2022-10-17T04:41:13;10.23;;;5.55;;
56943;SDS011;42848;42.524;12.052;2022-10-17T04:43:40;7.32;;;5.05;;
56943;SDS011;42848;42.524;12.052;2022-10-17T04:46:10;7.30;;;5.25;;
56943;SDS011;42848;42.524;12.052;2022-10-17T04:48:38;8.50;;;4.80;;
56943;SDS011;42848;42.524;12.052;2022-10-17T04:51:06;7.28;;;4.80;;
56943;SDS011;42848;42.524;12.052;2022-10-17T04:53:35;7.60;;;4.65;;
56943;SDS011;42848;42.524;12.052;2022-10-17T04:56:07;7.28;;;4.93;;
56943;SDS011;42848;42.524;12.052;2022-10-17T04:58:34;7.63;;;4.68;;
56943;SDS011;42848;42.524;12.052;2022-10-17T05:01:03;8.68;;;5.30;;
56943;SDS011;42848;42.524;12.052;2022-10-17T05:03:30;9.02;;;5.40;;
56943;SDS011;42848;42.524;12.052;2022-10-17T05:05:55;9.32;;;5.25;;
56943;SDS011;42848;42.524;12.052;2022-10-17T05:08:21;7.72;;;4.90;;
56943;SDS011;42848;42.524;12.052;2022-10-17T05:10:47;8.90;;;5.18;;
56943;SDS011;42848;42.524;12.052;2022-10-17T05:13:12;8.30;;;5.20;;
56943;SDS011;42848;42.524;12.052;2022-10-17T05:15:38;8.25;;;5.38;;
56943;SDS011;42848;42.524;12.052;2022-10-17T05:18:04;8.65;;;6.60;;
56943;SDS011;42848;42.524;12.052;2022-10-17T05:20:31;8.70;;;5.60;;
56943;SDS011;42848;42.524;12.052;2022-10-17T05:22:58;8.98;;;5.80;;
56943;SDS011;42848;42.524;12.052;2022-10-17T05:25:24;9.57;;;6.03;;
56943;SDS011;42848;42.524;12.052;2022-10-17T05:27:49;8.65;;;5.90;;
56943;SDS011;42848;42.524;12.052;2022-10-17T05:30:15;10.13;;;5.95;;
56943;SDS011;42848;42.524;12.052;2022-10-17T05:32:41;9.82;;;5.80;;
56943;SDS011;42848;42.524;12.052;2022-10-17T05:35:06;9.30;;;5.80;;
56943;SDS011;42848;42.524;12.052;2022-10-17T05:37:32;7.45;;;5.30;;
56943;SDS011;42848;42.524;12.052;2022-10-17T05:39:58;9.40;;;5.60;;
56943;SDS011;42848;42.524;12.052;2022-10-17T05:42:23;9.02;;;5.53;;
56943;SDS011;42848;42.524;12.052;2022-10-17T05:44:49;8.73;;;5.70;;
56943;SDS011;42848;42.524;12.052;2022-10-17T05:47:15;11.00;;;6.57;;
56943;SDS011;42848;42.524;12.052;2022-10-17T05:49:41;10.40;;;6.90;;
56943;SDS011;42848;42.524;12.052;2022-10-17T05:52:06;10.18;;;6.50;;
56943;SDS011;42848;42.524;12.052;2022-10-17T05:54:32;8.77;;;6.13;;
56943;SDS011;42848;42.524;12.052;2022-10-17T05:56:58;12.30;;;6.75;;
56943;SDS011;42848;42.524;12.052;2022-10-17T05:59:24;11.10;;;6.57;;
56943;SDS011;42848;42.524;12.052;2022-10-17T06:01:51;28.45;;;18.10;;
56943;SDS011;42848;42.524;12.052;2022-10-17T06:04:17;12.65;;;8.80;;
56943;SDS011;42848;42.524;12.052;2022-10-17T06:06:43;13.38;;;8.00;;
56943;SDS011;42848;42.524;12.052;2022-10-17T06:09:09;13.05;;;7.88;;
56943;SDS011;42848;42.524;12.052;2022-10-17T06:11:34;12.48;;;7.80;;
56943;SDS011;42848;42.524;12.052;2022-10-17T06:14:01;9.27;;;6.32;;
56943;SDS011;42848;42.524;12.052;2022-10-17T06:16:27;10.43;;;7.18;;
56943;SDS011;42848;42.524;12.052;2022-10-17T06:18:53;9.32;;;6.22;;
56943;SDS011;42848;42.524;12.052;2022-10-17T06:21:21;10.45;;;7.00;;
56943;SDS011;42848;42.524;12.052;2022-10-17T06:23:49;11.25;;;7.43;;
56943;SDS011;42848;42.524;12.052;2022-10-17T06:26:15;11.43;;;6.50;;
56943;SDS011;42848;42.524;12.052;2022-10-17T06:28:41;11.35;;;6.80;;
56943;SDS011;42848;42.524;12.052;2022-10-17T06:31:08;39.58;;;26.98;;
56943;SDS011;42848;42.524;12.052;2022-10-17T06:33:38;33.55;;;21.90;;
56943;SDS011;42848;42.524;12.052;2022-10-17T06:36:05;12.18;;;7.75;;
56943;SDS011;42848;42.524;12.052;2022-10-17T06:38:34;11.68;;;6.97;;
56943;SDS011;42848;42.524;12.052;2022-10-17T06:41:04;13.32;;;7.20;;
56943;SDS011;42848;42.524;12.052;2022-10-17T06:43:37;11.57;;;7.13;;
56943;SDS011;42848;42.524;12.052;2022-10-17T06:46:04;9.65;;;7.25;;
56943;SDS011;42848;42.524;12.052;2022-10-17T06:48:31;10.43;;;7.00;;
56943;SDS011;42848;42.524;12.052;2022-10-17T06:50:58;11.05;;;6.07;;
56943;SDS011;42848;42.524;12.052;2022-10-17T06:53:27;10.57;;;6.30;;
56943;SDS011;42848;42.524;12.052;2022-10-17T06:55:54;16.67;;;7.90;;
56943;SDS011;42848;42.524;12.052;2022-10-17T06:58:25;9.65;;;6.10;;
56943;SDS011;42848;42.524;12.052;2022-10-17T07:00:52;9.98;;;5.82;;
56943;SDS011;42848;42.524;12.052;2022-10-17T07:03:22;9.35;;;6.22;;
56943;SDS011;42848;42.524;12.052;2022-10-17T07:05:51;10.63;;;6.68;;
56943;SDS011;42848;42.524;12.052;2022-10-17T07:08:17;11.05;;;6.15;;
56943;SDS011;42848;42.524;12.052;2022-10-17T07:10:43;9.73;;;6.68;;
56943;SDS011;42848;42.524;12.052;2022-10-17T07:13:09;11.45;;;7.30;;
56943;SDS011;42848;42.524;12.052;2022-10-17T07:15:35;12.05;;;8.10;;
56943;SDS011;42848;42.524;12.052;2022-10-17T07:18:01;11.10;;;6.78;;
56943;SDS011;42848;42.524;12.052;2022-10-17T07:20:27;10.57;;;6.28;;
56943;SDS011;42848;42.524;12.052;2022-10-17T07:22:53;9.30;;;5.93;;
56943;SDS011;42848;42.524;12.052;2022-10-17T07:25:18;10.25;;;6.45;;
56943;SDS011;42848;42.524;12.052;2022-10-17T07:27:44;9.57;;;6.35;;
56943;SDS011;42848;42.524;12.052;2022-10-17T07:30:10;9.90;;;6.20;;
56943;SDS011;42848;42.524;12.052;2022-10-17T07:32:36;10.05;;;6.25;;
56943;SDS011;42848;42.524;12.052;2022-10-17T07:35:02;15.30;;;7.40;;
56943;SDS011;42848;42.524;12.052;2022-10-17T07:37:28;8.32;;;5.93;;
56943;SDS011;42848;42.524;12.052;2022-10-17T07:39:54;11.05;;;6.78;;
56943;SDS011;42848;42.524;12.052;2022-10-17T07:42:20;10.95;;;6.95;;
56943;SDS011;42848;42.524;12.052;2022-10-17T07:44:47;11.75;;;6.05;;
56943;SDS011;42848;42.524;12.052;2022-10-17T07:47:12;9.43;;;6.30;;
56943;SDS011;42848;42.524;12.052;2022-10-17T07:49:38;10.05;;;6.70;;
56943;SDS011;42848;42.524;12.052;2022-10-17T07:52:12;11.23;;;6.63;;
56943;SDS011;42848;42.524;12.052;2022-10-17T07:54:38;11.98;;;6.78;;
56943;SDS011;42848;42.524;12.052;2022-10-17T07:57:03;9.65;;;6.28;;
56943;SDS011;42848;42.524;12.052;2022-10-17T07:59:29;8.48;;;5.90;;
56943;SDS011;42848;42.524;12.052;2022-10-17T08:01:58;9.52;;;6.30;;
56943;SDS011;42848;42.524;12.052;2022-10-17T08:04:24;9.32;;;6.15;;
56943;SDS011;42848;42.524;12.052;2022-10-17T08:06:50;9.02;;;5.93;;
56943;SDS011;42848;42.524;12.052;2022-10-17T08:09:16;9.98;;;5.95;;
56943;SDS011;42848;42.524;12.052;2022-10-17T08:11:42;9.25;;;6.13;;
56943;SDS011;42848;42.524;12.052;2022-10-17T08:14:13;7.93;;;5.28;;
56943;SDS011;42848;42.524;12.052;2022-10-17T08:16:41;7.95;;;5.13;;
56943;SDS011;42848;42.524;12.052;2022-10-17T08:19:07;9.63;;;6.45;;
56943;SDS011;42848;42.524;12.052;2022-10-17T08:21:37;10.00;;;6.13;;
56943;SDS011;42848;42.524;12.052;2022-10-17T08:24:03;11.95;;;7.05;;
56943;SDS011;42848;42.524;12.052;2022-10-17T08:26:29;10.43;;;7.55;;
56943;SDS011;42848;42.524;12.052;2022-10-17T08:28:55;10.82;;;6.85;;
56943;SDS011;42848;42.524;12.052;2022-10-17T08:31:20;13.02;;;7.30;;
56943;SDS011;42848;42.524;12.052;2022-10-17T08:33:47;9.23;;;7.05;;
56943;SDS011;42848;42.524;12.052;2022-10-17T08:36:15;11.50;;;7.80;;
56943;SDS011;42848;42.524;12.052;2022-10-17T08:38:42;13.23;;;7.78;;
56943;SDS011;42848;42.524;12.052;2022-10-17T08:41:28;11.02;;;7.05;;
56943;SDS011;42848;42.524;12.052;2022-10-17T08:46:35;10.82;;;7.13;;
56943;SDS011;42848;42.524;12.052;2022-10-17T08:49:05;12.55;;;7.53;;
56943;SDS011;42848;42.524;12.052;2022-10-17T08:51:41;10.65;;;7.20;;
56943;SDS011;42848;42.524;12.052;2022-10-17T08:54:21;11.05;;;7.40;;
56943;SDS011;42848;42.524;12.052;2022-10-17T08:56:56;9.10;;;6.75;;
56943;SDS011;42848;42.524;12.052;2022-10-17T08:59:24;10.85;;;6.88;;
56943;SDS011;42848;42.524;12.052;2022-10-17T09:10:39;8.30;;;5.47;;
56943;SDS011;42848;42.524;12.052;2022-10-17T09:19:21;10.00;;;6.80;;
56943;SDS011;42848;42.524;12.052;2022-10-17T09:21:54;9.50;;;6.10;;
56943;SDS011;42848;42.524;12.052;2022-10-17T09:24:23;12.40;;;6.60;;
56943;SDS011;42848;42.524;12.052;2022-10-17T09:27:24;10.25;;;6.63;;
56943;SDS011;42848;42.524;12.052;2022-10-17T09:29:53;12.05;;;7.07;;
56943;SDS011;42848;42.524;12.052;2022-10-17T09:32:26;11.05;;;6.93;;
56943;SDS011;42848;42.524;12.052;2022-10-17T09:34:52;9.70;;;6.93;;
56943;SDS011;42848;42.524;12.052;2022-10-17T09:37:18;10.82;;;6.60;;
56943;SDS011;42848;42.524;12.052;2022-10-17T09:39:49;12.40;;;7.25;;
56943;SDS011;42848;42.524;12.052;2022-10-17T09:42:15;10.02;;;6.60;;
56943;SDS011;42848;42.524;12.052;2022-10-17T09:45:03;10.55;;;6.95;;
56943;SDS011;42848;42.524;12.052;2022-10-17T09:50:37;8.57;;;6.18;;
56943;SDS011;42848;42.524;12.052;2022-10-17T09:56:06;8.75;;;6.57;;
56943;SDS011;42848;42.524;12.052;2022-10-17T09:58:39;9.20;;;6.38;;
56943;SDS011;42848;42.524;12.052;2022-10-17T10:01:17;8.63;;;6.20;;
56943;SDS011;42848;42.524;12.052;2022-10-17T10:03:45;9.85;;;6.38;;
56943;SDS011;42848;42.524;12.052;2022-10-17T10:06:18;10.52;;;6.60;;
56943;SDS011;42848;42.524;12.052;2022-10-17T10:11:14;8.55;;;6.03;;
56943;SDS011;42848;42.524;12.052;2022-10-17T10:13:41;9.50;;;6.15;;
56943;SDS011;42848;42.524;12.052;2022-10-17T10:16:15;12.63;;;6.28;;
56943;SDS011;42848;42.524;12.052;2022-10-17T10:18:43;9.55;;;6.53;;
56943;SDS011;42848;42.524;12.052;2022-10-17T10:21:14;10.13;;;6.85;;
56943;SDS011;42848;42.524;12.052;2022-10-17T10:24:04;8.95;;;6.32;;
56943;SDS011;42848;42.524;12.052;2022-10-17T10:34:47;9.60;;;6.50;;
56943;SDS011;42848;42.524;12.052;2022-10-17T10:37:18;9.60;;;6.60;;
56943;SDS011;42848;42.524;12.052;2022-10-17T10:39:59;7.65;;;5.80;;
56943;SDS011;42848;42.524;12.052;2022-10-17T10:42:28;13.25;;;6.45;;
56943;SDS011;42848;42.524;12.052;2022-10-17T10:45:02;11.40;;;6.40;;
56943;SDS011;42848;42.524;12.052;2022-10-17T10:47:38;8.85;;;6.30;;
56943;SDS011;42848;42.524;12.052;2022-10-17T10:50:35;10.20;;;6.00;;
56943;SDS011;42848;42.524;12.052;2022-10-17T10:53:11;8.90;;;5.82;;
56943;SDS011;42848;42.524;12.052;2022-10-17T11:01:31;9.63;;;5.72;;
56943;SDS011;42848;42.524;12.052;2022-10-17T11:06:43;7.78;;;5.63;;
56943;SDS011;42848;42.524;12.052;2022-10-17T11:09:33;9.43;;;5.57;;
56943;SDS011;42848;42.524;12.052;2022-10-17T11:12:21;9.57;;;5.40;;
56943;SDS011;42848;42.524;12.052;2022-10-17T11:14:57;10.63;;;5.60;;
56943;SDS011;42848;42.524;12.052;2022-10-17T11:17:41;8.15;;;5.20;;
56943;SDS011;42848;42.524;12.052;2022-10-17T11:22:56;8.23;;;5.45;;
56943;SDS011;42848;42.524;12.052;2022-10-17T11:25:33;7.78;;;5.38;;
56943;SDS011;42848;42.524;12.052;2022-10-17T11:28:01;7.60;;;5.45;;
56943;SDS011;42848;42.524;12.052;2022-10-17T11:30:38;8.02;;;5.03;;
56943;SDS011;42848;42.524;12.052;2022-10-17T11:33:16;7.40;;;5.25;;
56943;SDS011;42848;42.524;12.052;2022-10-17T11:35:48;7.63;;;5.15;;
56943;SDS011;42848;42.524;12.052;2022-10-17T11:38:20;8.00;;;4.95;;
56943;SDS011;42848;42.524;12.052;2022-10-17T11:40:52;7.50;;;4.78;;
56943;SDS011;42848;42.524;12.052;2022-10-17T11:43:32;6.28;;;4.68;;
56943;SDS011;42848;42.524;12.052;2022-10-17T11:46:20;7.40;;;4.72;;
56943;SDS011;42848;42.524;12.052;2022-10-17T11:51:25;7.10;;;5.00;;
56943;SDS011;42848;42.524;12.052;2022-10-17T11:53:58;8.05;;;4.78;;
56943;SDS011;42848;42.524;12.052;2022-10-17T11:59:42;6.38;;;4.57;;
56943;SDS011;42848;42.524;12.052;2022-10-17T12:02:32;6.75;;;4.50;;
56943;SDS011;42848;42.524;12.052;2022-10-17T12:08:19;7.57;;;4.28;;
56943;SDS011;42848;42.524;12.052;2022-10-17T12:13:58;7.50;;;4.50;;
56943;SDS011;42848;42.524;12.052;2022-10-17T12:21:25;8.45;;;4.72;;
56943;SDS011;42848;42.524;12.052;2022-10-17T12:23:52;7.50;;;4.43;;
56943;SDS011;42848;42.524;12.052;2022-10-17T12:26:26;6.57;;;4.30;;
56943;SDS011;42848;42.524;12.052;2022-10-17T12:28:53;7.55;;;4.70;;
56943;SDS011;42848;42.524;12.052;2022-10-17T12:31:23;7.40;;;4.28;;
56943;SDS011;42848;42.524;12.052;2022-10-17T12:33:51;5.90;;;4.00;;
56943;SDS011;42848;42.524;12.052;2022-10-17T12:38:46;7.35;;;4.65;;
56943;SDS011;42848;42.524;12.052;2022-10-17T12:41:16;6.65;;;4.95;;
56943;SDS011;42848;42.524;12.052;2022-10-17T12:46:50;6.85;;;5.10;;
56943;SDS011;42848;42.524;12.052;2022-10-17T12:52:22;6.75;;;4.70;;
56943;SDS011;42848;42.524;12.052;2022-10-17T12:54:54;8.25;;;4.68;;
56943;SDS011;42848;42.524;12.052;2022-10-17T13:00:31;6.00;;;4.40;;
56943;SDS011;42848;42.524;12.052;2022-10-17T13:03:09;6.95;;;4.53;;
56943;SDS011;42848;42.524;12.052;2022-10-17T13:05:42;6.28;;;4.32;;
56943;SDS011;42848;42.524;12.052;2022-10-17T13:08:22;6.18;;;3.90;;
56943;SDS011;42848;42.524;12.052;2022-10-17T13:10:51;5.88;;;3.90;;
56943;SDS011;42848;42.524;12.052;2022-10-17T13:13:37;8.05;;;3.72;;
56943;SDS011;42848;42.524;12.052;2022-10-17T13:19:00;6.18;;;4.20;;
56943;SDS011;42848;42.524;12.052;2022-10-17T13:21:27;6.50;;;4.28;;
56943;SDS011;42848;42.524;12.052;2022-10-17T13:23:53;6.75;;;4.57;;
56943;SDS011;42848;42.524;12.052;2022-10-17T13:26:26;7.32;;;4.30;;
56943;SDS011;42848;42.524;12.052;2022-10-17T13:31:50;5.85;;;4.45;;
56943;SDS011;42848;42.524;12.052;2022-10-17T13:34:18;5.80;;;3.78;;
56943;SDS011;42848;42.524;12.052;2022-10-17T13:36:47;5.45;;;4.05;;
56943;SDS011;42848;42.524;12.052;2022-10-17T13:39:18;6.95;;;4.40;;
56943;SDS011;42848;42.524;12.052;2022-10-17T13:41:46;6.40;;;4.20;;
56943;SDS011;42848;42.524;12.052;2022-10-17T13:44:14;8.73;;;4.40;;
56943;SDS011;42848;42.524;12.052;2022-10-17T13:46:42;6.13;;;4.00;;
56943;SDS011;42848;42.524;12.052;2022-10-17T13:49:10;7.65;;;4.30;;
56943;SDS011;42848;42.524;12.052;2022-10-17T13:51:45;7.60;;;4.40;;
56943;SDS011;42848;42.524;12.052;2022-10-17T13:54:16;6.60;;;4.13;;
56943;SDS011;42848;42.524;12.052;2022-10-17T13:56:44;6.70;;;4.40;;
56943;SDS011;42848;42.524;12.052;2022-10-17T13:59:30;9.00;;;4.93;;
56943;SDS011;42848;42.524;12.052;2022-10-17T14:02:12;11.65;;;4.97;;
56943;SDS011;42848;42.524;12.052;2022-10-17T14:04:40;9.15;;;4.72;;
56943;SDS011;42848;42.524;12.052;2022-10-17T14:07:11;7.50;;;4.22;;
56943;SDS011;42848;42.524;12.052;2022-10-17T14:10:04;9.15;;;4.30;;
56943;SDS011;42848;42.524;12.052;2022-10-17T14:12:41;6.50;;;3.92;;
56943;SDS011;42848;42.524;12.052;2022-10-17T14:15:08;7.38;;;4.45;;
56943;SDS011;42848;42.524;12.052;2022-10-17T14:17:39;6.93;;;4.00;;
56943;SDS011;42848;42.524;12.052;2022-10-17T14:20:06;7.43;;;4.28;;
56943;SDS011;42848;42.524;12.052;2022-10-17T14:22:34;8.00;;;4.35;;
56943;SDS011;42848;42.524;12.052;2022-10-17T14:25:01;5.45;;;4.07;;
56943;SDS011;42848;42.524;12.052;2022-10-17T14:27:32;6.55;;;4.40;;
56943;SDS011;42848;42.524;12.052;2022-10-17T14:30:27;6.43;;;4.25;;
56943;SDS011;42848;42.524;12.052;2022-10-17T14:32:53;7.20;;;4.40;;
56943;SDS011;42848;42.524;12.052;2022-10-17T14:37:51;7.30;;;4.70;;
56943;SDS011;42848;42.524;12.052;2022-10-17T14:40:22;9.48;;;4.57;;
56943;SDS011;42848;42.524;12.052;2022-10-17T14:42:54;7.72;;;4.95;;
56943;SDS011;42848;42.524;12.052;2022-10-17T14:45:26;7.45;;;4.55;;
56943;SDS011;42848;42.524;12.052;2022-10-17T14:47:55;6.57;;;4.40;;
56943;SDS011;42848;42.524;12.052;2022-10-17T14:50:27;7.05;;;4.38;;
56943;SDS011;42848;42.524;12.052;2022-10-17T14:55:37;7.97;;;5.53;;
56943;SDS011;42848;42.524;12.052;2022-10-17T14:58:16;8.52;;;5.43;;
56943;SDS011;42848;42.524;12.052;2022-10-17T15:00:47;7.70;;;4.85;;
56943;SDS011;42848;42.524;12.052;2022-10-17T15:03:12;6.70;;;4.68;;
56943;SDS011;42848;42.524;12.052;2022-10-17T15:05:38;7.35;;;4.30;;
56943;SDS011;42848;42.524;12.052;2022-10-17T15:08:07;7.03;;;4.38;;
56943;SDS011;42848;42.524;12.052;2022-10-17T15:13:06;7.60;;;4.88;;
56943;SDS011;42848;42.524;12.052;2022-10-17T15:15:32;9.82;;;4.68;;
56943;SDS011;42848;42.524;12.052;2022-10-17T15:17:59;7.30;;;4.45;;
56943;SDS011;42848;42.524;12.052;2022-10-17T15:20:25;6.63;;;4.82;;
56943;SDS011;42848;42.524;12.052;2022-10-17T15:22:53;7.68;;;4.85;;
56943;SDS011;42848;42.524;12.052;2022-10-17T15:25:20;6.95;;;4.55;;
56943;SDS011;42848;42.524;12.052;2022-10-17T15:27:46;6.65;;;4.47;;
56943;SDS011;42848;42.524;12.052;2022-10-17T15:30:30;6.13;;;4.45;;
56943;SDS011;42848;42.524;12.052;2022-10-17T15:33:00;7.50;;;4.47;;
56943;SDS011;42848;42.524;12.052;2022-10-17T15:35:26;6.13;;;4.13;;
56943;SDS011;42848;42.524;12.052;2022-10-17T15:37:52;6.72;;;4.28;;
56943;SDS011;42848;42.524;12.052;2022-10-17T15:40:21;7.72;;;4.60;;
56943;SDS011;42848;42.524;12.052;2022-10-17T15:42:54;7.50;;;4.80;;
56943;SDS011;42848;42.524;12.052;2022-10-17T15:45:21;7.20;;;4.70;;
56943;SDS011;42848;42.524;12.052;2022-10-17T15:47:51;7.18;;;4.13;;
56943;SDS011;42848;42.524;12.052;2022-10-17T15:50:20;6.15;;;4.00;;
56943;SDS011;42848;42.524;12.052;2022-10-17T15:52:46;7.50;;;4.70;;
56943;SDS011;42848;42.524;12.052;2022-10-17T15:55:15;7.20;;;4.45;;
56943;SDS011;42848;42.524;12.052;2022-10-17T15:57:41;6.97;;;4.15;;
56943;SDS011;42848;42.524;12.052;2022-10-17T16:00:14;7.00;;;4.00;;
56943;SDS011;42848;42.524;12.052;2022-10-17T16:02:45;6.93;;;4.05;;
56943;SDS011;42848;42.524;12.052;2022-10-17T16:05:18;5.45;;;3.70;;
56943;SDS011;42848;42.524;12.052;2022-10-17T16:07:50;10.45;;;4.30;;
56943;SDS011;42848;42.524;12.052;2022-10-17T16:10:17;9.60;;;4.25;;
56943;SDS011;42848;42.524;12.052;2022-10-17T16:12:44;6.00;;;3.80;;
56943;SDS011;42848;42.524;12.052;2022-10-17T16:15:14;9.38;;;5.18;;
56943;SDS011;42848;42.524;12.052;2022-10-17T16:17:42;8.48;;;5.00;;
56943;SDS011;42848;42.524;12.052;2022-10-17T16:20:08;7.25;;;4.05;;
56943;SDS011;42848;42.524;12.052;2022-10-17T16:22:35;8.45;;;4.70;;
56943;SDS011;42848;42.524;12.052;2022-10-17T16:25:03;7.22;;;4.97;;
56943;SDS011;42848;42.524;12.052;2022-10-17T16:30:05;9.40;;;4.82;;
56943;SDS011;42848;42.524;12.052;2022-10-17T16:32:32;14.88;;;8.77;;
56943;SDS011;42848;42.524;12.052;2022-10-17T16:34:58;11.68;;;6.00;;
56943;SDS011;42848;42.524;12.052;2022-10-17T16:37:24;7.10;;;4.47;;
56943;SDS011;42848;42.524;12.052;2022-10-17T16:39:50;5.95;;;4.32;;
56943;SDS011;42848;42.524;12.052;2022-10-17T16:42:20;6.65;;;4.35;;
56943;SDS011;42848;42.524;12.052;2022-10-17T16:44:49;6.95;;;3.83;;
56943;SDS011;42848;42.524;12.052;2022-10-17T16:47:16;11.32;;;7.15;;
56943;SDS011;42848;42.524;12.052;2022-10-17T16:49:42;12.80;;;8.98;;
56943;SDS011;42848;42.524;12.052;2022-10-17T16:52:10;8.73;;;5.57;;
56943;SDS011;42848;42.524;12.052;2022-10-17T16:54:36;8.52;;;6.38;;
56943;SDS011;42848;42.524;12.052;2022-10-17T16:57:02;11.23;;;6.80;;
56943;SDS011;42848;42.524;12.052;2022-10-17T16:59:28;24.42;;;13.30;;